Terminal Aerodrome Forecast
Issued by NWS

Home | Current Version | Previous Version | Text Only | Print | Product List | Glossary On
Versions: 1 2 3 4 5 6 7 8 9 10 11 12 13 14 15 16 17 18
000
FTUS45 KTFX 260537
TAFGTF
TAF
KGTF 260537Z 2606/2706 23015KT P6SM SCT060 BKN100
     FM260900 22011KT P6SM VCSH SCT040 OVC070
      TEMPO 2611/2615 5SM -SHSN BR BKN025
     FM261500 31015KT 6SM -SN SCT015 OVC025
      TEMPO 2615/2618 2SM -SHSN BKN015
     FM261800 01011KT 2SM -SN BR SCT008 OVC015 PROB30 2619/2623 1SM
      -SN BR BKN008=

USA.gov is the U.S. government's official web portal to all federal, state and local government web resources and services.